createdAt,value
2018-06-30T00:00:00.126Z,0.00
2018-06-30T00:01:00.425Z,0.00
2018-06-30T00:02:00.541Z,0.00
2018-06-30T00:03:00.731Z,0.00
2018-06-30T00:04:00.943Z,0.00
2018-06-30T00:05:01.146Z,0.00
2018-06-30T00:06:01.340Z,0.00
2018-06-30T00:07:01.532Z,0.00
2018-06-30T00:08:01.746Z,0.00
2018-06-30T00:09:01.948Z,0.00
2018-06-30T00:10:02.140Z,0.00
2018-06-30T00:11:02.403Z,0.00
2018-06-30T00:12:02.544Z,0.00
2018-06-30T00:13:02.746Z,0.00
2018-06-30T00:14:02.938Z,0.00
2018-06-30T00:15:03.126Z,0.00
2018-06-30T00:16:03.342Z,0.00
2018-06-30T00:17:03.532Z,0.00
2018-06-30T00:18:03.714Z,0.00
2018-06-30T00:19:03.918Z,0.00
2018-06-30T00:20:04.123Z,0.00
2018-06-30T00:22:36.252Z,0.00
2018-06-30T00:23:36.444Z,0.00
2018-06-30T00:24:36.653Z,0.00
2018-06-30T00:25:36.844Z,0.00
2018-06-30T00:26:37.050Z,0.00
2018-06-30T00:27:37.231Z,0.00
2018-06-30T00:28:37.432Z,0.00
2018-06-30T00:29:37.623Z,0.00
2018-06-30T00:30:37.820Z,0.00
2018-06-30T00:31:38.034Z,0.00
2018-06-30T00:32:38.217Z,0.00
2018-06-30T00:33:38.425Z,0.00
2018-06-30T00:34:38.611Z,0.00
2018-06-30T00:35:38.802Z,0.00
2018-06-30T00:36:39.018Z,0.00
2018-06-30T00:37:39.224Z,0.00
2018-06-30T00:38:39.421Z,0.00
2018-06-30T00:39:39.609Z,0.00
2018-06-30T00:40:39.820Z,0.00
2018-06-30T00:41:40.037Z,0.00
2018-06-30T00:42:40.255Z,0.00
2018-06-30T00:45:12.376Z,0.00
2018-06-30T00:46:12.548Z,0.00
2018-06-30T00:47:12.760Z,0.00
2018-06-30T00:48:12.951Z,0.00
2018-06-30T00:49:13.163Z,0.00
2018-06-30T00:50:13.363Z,0.00
2018-06-30T00:51:13.560Z,0.00
2018-06-30T00:52:13.783Z,0.00
2018-06-30T00:53:13.995Z,0.00
2018-06-30T00:54:14.205Z,0.00
2018-06-30T00:55:14.413Z,0.00
2018-06-30T00:56:14.645Z,0.00
2018-06-30T00:57:14.865Z,0.00
2018-06-30T00:58:15.059Z,0.00
2018-06-30T00:59:15.269Z,0.00
2018-06-30T01:00:15.456Z,0.00
2018-06-30T01:01:15.658Z,0.00
2018-06-30T01:02:15.853Z,0.00
2018-06-30T01:03:16.082Z,0.00
2018-06-30T01:04:16.274Z,0.00
2018-06-30T01:05:16.478Z,0.00
2018-06-30T01:06:16.673Z,0.00
2018-06-30T01:07:16.902Z,0.00
2018-06-30T01:08:17.092Z,0.00
2018-06-30T01:09:17.277Z,0.00
2018-06-30T01:11:49.659Z,0.00
2018-06-30T01:12:49.590Z,0.00
2018-06-30T01:13:49.799Z,0.00
2018-06-30T01:14:50.001Z,0.00
2018-06-30T01:15:50.215Z,0.00
2018-06-30T01:16:50.412Z,0.00
2018-06-30T01:17:50.622Z,0.00
2018-06-30T01:18:50.835Z,0.00
2018-06-30T01:19:51.039Z,0.00
2018-06-30T01:20:51.257Z,0.00
2018-06-30T01:21:51.462Z,0.00
2018-06-30T01:22:51.648Z,0.00
2018-06-30T01:23:51.848Z,0.00
2018-06-30T01:24:52.120Z,0.00
2018-06-30T01:25:52.207Z,0.00
2018-06-30T01:26:52.394Z,0.00
2018-06-30T01:27:52.608Z,0.00
2018-06-30T01:28:52.803Z,0.00
2018-06-30T01:29:53.016Z,0.00
2018-06-30T01:30:53.216Z,0.00
2018-06-30T01:31:53.436Z,0.00
2018-06-30T01:32:53.628Z,0.00
2018-06-30T01:33:53.817Z,0.00
2018-06-30T01:34:54.028Z,0.00
2018-06-30T01:35:54.240Z,0.00
2018-06-30T01:36:54.452Z,0.00
2018-06-30T01:37:54.662Z,0.00
2018-06-30T01:38:54.873Z,0.00
2018-06-30T01:39:55.057Z,0.00
2018-06-30T01:40:55.249Z,0.00
2018-06-30T01:41:55.434Z,0.00
2018-06-30T01:42:55.632Z,0.00
2018-06-30T01:43:55.842Z,0.00
2018-06-30T01:44:56.051Z,0.00
2018-06-30T01:45:56.248Z,0.00
2018-06-30T01:46:56.440Z,0.00
2018-06-30T01:47:56.640Z,0.00
2018-06-30T01:48:56.831Z,0.00
2018-06-30T01:49:57.033Z,0.00
2018-06-30T01:50:57.225Z,0.00
2018-06-30T01:51:57.409Z,0.00
2018-06-30T01:52:57.613Z,0.00
2018-06-30T01:53:57.814Z,0.00
2018-06-30T01:54:58.020Z,0.00
2018-06-30T01:55:58.213Z,0.00
2018-06-30T01:56:58.423Z,0.00
2018-06-30T01:57:58.635Z,0.00
2018-06-30T01:58:58.840Z,0.00
2018-06-30T01:59:59.041Z,0.00
2018-06-30T02:00:59.227Z,0.00
2018-06-30T02:01:59.414Z,0.00
2018-06-30T02:02:59.621Z,0.00
2018-06-30T02:03:59.814Z,0.00
2018-06-30T02:05:00.035Z,0.00
2018-06-30T02:06:00.217Z,0.00
2018-06-30T02:07:00.393Z,0.00
2018-06-30T02:08:00.581Z,0.00
2018-06-30T02:09:00.797Z,0.00
2018-06-30T02:10:00.999Z,0.00
2018-06-30T02:11:01.189Z,0.00
2018-06-30T02:12:01.409Z,0.00
2018-06-30T02:13:01.617Z,0.00
2018-06-30T02:14:01.800Z,0.00
2018-06-30T02:15:02.008Z,0.00
2018-06-30T02:16:02.209Z,0.00
2018-06-30T02:17:02.400Z,0.00
2018-06-30T02:18:02.615Z,0.00
2018-06-30T02:20:34.720Z,0.00
2018-06-30T02:21:34.941Z,0.00
2018-06-30T02:22:35.089Z,0.00
2018-06-30T02:23:35.286Z,0.00
2018-06-30T02:24:35.490Z,0.00
2018-06-30T02:25:35.687Z,0.00
2018-06-30T02:26:35.897Z,0.00
2018-06-30T02:27:36.109Z,0.00
2018-06-30T02:28:36.413Z,0.00
2018-06-30T02:29:36.506Z,0.00
2018-06-30T02:30:36.694Z,0.00
2018-06-30T02:31:36.898Z,0.00
2018-06-30T02:32:37.095Z,0.00
2018-06-30T02:33:37.282Z,0.00
2018-06-30T02:34:37.475Z,0.00
2018-06-30T02:35:37.694Z,0.00
2018-06-30T02:36:37.878Z,0.00
2018-06-30T02:37:38.085Z,0.00
2018-06-30T02:38:38.292Z,0.00
2018-06-30T02:39:38.498Z,0.00
2018-06-30T02:40:38.699Z,0.00
2018-06-30T02:41:38.904Z,0.00
2018-06-30T02:42:39.098Z,0.00
2018-06-30T02:43:39.291Z,0.00
2018-06-30T02:44:39.475Z,0.00
2018-06-30T02:45:39.677Z,0.00
2018-06-30T02:46:39.977Z,0.00
2018-06-30T02:47:40.035Z,0.00
2018-06-30T02:48:40.224Z,0.00
2018-06-30T02:49:40.416Z,0.00
2018-06-30T02:50:40.626Z,0.00
2018-06-30T02:51:40.807Z,0.00
2018-06-30T02:52:41.031Z,5.63
2018-06-30T02:53:41.235Z,5.63
2018-06-30T02:54:41.426Z,5.63
2018-06-30T02:55:41.631Z,5.63
2018-06-30T02:56:41.816Z,5.63
2018-06-30T02:57:42.033Z,5.63
2018-06-30T02:58:42.231Z,5.63
2018-06-30T02:59:42.445Z,5.63
2018-06-30T03:00:42.623Z,11.25
2018-06-30T03:01:42.839Z,11.25
2018-06-30T03:02:43.034Z,11.25
2018-06-30T03:03:43.242Z,11.25
2018-06-30T03:04:43.441Z,11.25
2018-06-30T03:05:43.652Z,16.88
2018-06-30T03:06:43.843Z,16.88
2018-06-30T03:07:44.038Z,16.88
2018-06-30T03:08:44.250Z,16.88
2018-06-30T03:09:44.444Z,22.50
2018-06-30T03:10:44.666Z,22.50
2018-06-30T03:13:16.797Z,28.13
2018-06-30T03:14:16.978Z,28.13
2018-06-30T03:15:17.176Z,33.75
2018-06-30T03:16:17.380Z,33.75
2018-06-30T03:17:17.598Z,33.75
2018-06-30T03:18:17.810Z,39.38
2018-06-30T03:19:17.994Z,39.38
2018-06-30T03:20:18.190Z,45.00
2018-06-30T03:21:18.432Z,45.00
2018-06-30T03:22:18.641Z,50.63
2018-06-30T03:23:18.828Z,50.63
2018-06-30T03:24:19.023Z,56.25
2018-06-30T03:25:19.227Z,56.25
2018-06-30T03:26:19.415Z,61.88
2018-06-30T03:27:19.618Z,67.50
2018-06-30T03:28:19.825Z,67.50
2018-06-30T03:29:20.018Z,73.13
2018-06-30T03:31:52.478Z,78.75
2018-06-30T03:32:52.275Z,84.38
2018-06-30T03:33:52.472Z,90.00
2018-06-30T03:34:52.694Z,90.00
2018-06-30T03:35:52.884Z,95.63
2018-06-30T03:36:53.075Z,101.25
2018-06-30T03:37:53.319Z,101.25
2018-06-30T03:38:53.464Z,106.88
2018-06-30T03:39:53.680Z,112.50
2018-06-30T03:40:53.874Z,118.13
2018-06-30T03:41:54.171Z,118.13
2018-06-30T03:42:54.254Z,123.75
2018-06-30T03:43:54.453Z,129.38
2018-06-30T03:44:54.664Z,135.00
2018-06-30T03:45:54.894Z,140.63
2018-06-30T03:46:55.092Z,140.63
2018-06-30T03:49:26.913Z,151.88
2018-06-30T03:50:27.085Z,157.50
2018-06-30T03:51:27.296Z,157.50
2018-06-30T03:52:27.485Z,163.13
2018-06-30T03:53:27.679Z,168.75
2018-06-30T03:54:27.877Z,174.38
2018-06-30T03:55:28.083Z,180.00
2018-06-30T03:56:28.292Z,191.25
2018-06-30T03:57:28.489Z,202.50
2018-06-30T03:58:28.674Z,208.13
2018-06-30T03:59:28.868Z,202.50
2018-06-30T04:00:29.064Z,208.13
2018-06-30T04:01:29.265Z,213.75
2018-06-30T04:02:29.458Z,225.00
2018-06-30T04:03:29.680Z,298.13
2018-06-30T04:04:29.896Z,365.63
2018-06-30T04:05:30.101Z,309.38
2018-06-30T04:06:30.315Z,315.00
2018-06-30T04:07:30.550Z,354.38
2018-06-30T04:08:30.758Z,360.00
2018-06-30T04:09:30.961Z,416.25
2018-06-30T04:10:31.165Z,444.38
2018-06-30T04:11:31.377Z,360.00
2018-06-30T04:12:31.575Z,427.50
2018-06-30T04:15:03.961Z,416.25
2018-06-30T04:16:04.009Z,624.38
2018-06-30T04:17:04.206Z,753.75
2018-06-30T04:18:04.419Z,793.13
2018-06-30T04:19:04.623Z,821.25
2018-06-30T04:20:04.825Z,843.75
2018-06-30T04:21:05.012Z,860.63
2018-06-30T04:22:05.267Z,883.13
2018-06-30T04:23:05.445Z,905.63
2018-06-30T04:24:05.654Z,928.13
2018-06-30T04:25:05.867Z,945.00
2018-06-30T04:26:06.055Z,967.50
2018-06-30T04:27:06.251Z,990.00
2018-06-30T04:28:06.440Z,1006.88
2018-06-30T04:29:06.644Z,1029.38
2018-06-30T04:30:06.861Z,1046.25
2018-06-30T04:31:07.041Z,1080.00
2018-06-30T04:32:07.233Z,1113.75
2018-06-30T04:33:07.452Z,1153.13
2018-06-30T04:34:07.652Z,1186.88
2018-06-30T04:35:07.846Z,1203.75
2018-06-30T04:36:08.042Z,1243.13
2018-06-30T04:37:08.299Z,1254.38
2018-06-30T04:38:08.515Z,1265.63
2018-06-30T04:39:08.704Z,1293.75
2018-06-30T04:40:08.912Z,1321.88
2018-06-30T04:41:09.106Z,1350.00
2018-06-30T04:42:09.298Z,1361.25
2018-06-30T04:43:09.525Z,1389.38
2018-06-30T04:44:09.713Z,1434.38
2018-06-30T04:45:09.967Z,1445.63
2018-06-30T04:46:10.113Z,1473.75
2018-06-30T04:47:10.321Z,1496.25
2018-06-30T04:48:10.560Z,1530.00
2018-06-30T04:49:10.762Z,1575.00
2018-06-30T04:50:10.963Z,1597.50
2018-06-30T04:51:11.178Z,1614.38
2018-06-30T04:53:43.017Z,1665.00
2018-06-30T04:54:43.192Z,1676.25
2018-06-30T04:55:43.402Z,1704.38
2018-06-30T04:56:43.622Z,1732.50
2018-06-30T04:57:43.842Z,1771.88
2018-06-30T04:58:44.034Z,1811.25
2018-06-30T04:59:44.221Z,1839.38
2018-06-30T05:00:44.496Z,1867.50
2018-06-30T05:01:44.560Z,1890.00
2018-06-30T05:02:44.754Z,1935.00
2018-06-30T05:03:44.967Z,1968.75
2018-06-30T05:04:45.176Z,1996.88
2018-06-30T05:05:45.380Z,2053.13
2018-06-30T05:06:45.572Z,2081.25
2018-06-30T05:07:45.784Z,2126.25
2018-06-30T05:10:18.177Z,2199.38
2018-06-30T05:11:18.106Z,2193.75
2018-06-30T05:12:18.297Z,2216.25
2018-06-30T05:13:18.513Z,2227.50
2018-06-30T05:14:18.723Z,2244.38
2018-06-30T05:15:18.894Z,2272.50
2018-06-30T05:16:19.102Z,2295.00
2018-06-30T05:17:19.300Z,2323.13
2018-06-30T05:18:19.493Z,2351.25
2018-06-30T05:19:19.704Z,2396.25
2018-06-30T05:20:19.906Z,2446.88
2018-06-30T05:21:20.121Z,2486.25
2018-06-30T05:22:20.338Z,2503.13
2018-06-30T05:23:20.547Z,2536.88
2018-06-30T05:24:20.755Z,2604.38
2018-06-30T05:25:20.965Z,2604.38
2018-06-30T05:26:21.174Z,2643.75
2018-06-30T05:27:21.383Z,2655.00
2018-06-30T05:28:21.581Z,2694.38
2018-06-30T05:29:21.780Z,2694.38
2018-06-30T05:30:21.974Z,2722.50
2018-06-30T05:31:22.171Z,2761.88
2018-06-30T05:32:22.486Z,2790.00
2018-06-30T05:33:22.597Z,2818.13
2018-06-30T05:34:22.783Z,2851.88
2018-06-30T05:35:23.005Z,2829.38
2018-06-30T05:36:23.209Z,2913.75
2018-06-30T05:37:23.405Z,2913.75
2018-06-30T05:38:23.613Z,3020.63
2018-06-30T05:39:23.819Z,3054.38
2018-06-30T05:40:24.014Z,3043.13
2018-06-30T05:41:24.217Z,3037.50
2018-06-30T05:42:24.446Z,3065.63
2018-06-30T05:43:24.667Z,3144.38
2018-06-30T05:44:24.875Z,3178.13
2018-06-30T05:45:25.093Z,3217.50
2018-06-30T05:46:25.295Z,3279.38
2018-06-30T05:47:25.517Z,3330.00
2018-06-30T05:48:25.724Z,3318.75
2018-06-30T05:49:25.935Z,3256.88
2018-06-30T05:50:26.141Z,3234.38
2018-06-30T05:51:26.334Z,3346.88
2018-06-30T05:52:26.551Z,3391.88
2018-06-30T05:53:26.776Z,3386.25
2018-06-30T05:54:26.971Z,3442.50
2018-06-30T05:55:27.186Z,3414.38
2018-06-30T05:56:27.383Z,3465.00
2018-06-30T05:57:27.576Z,3414.38
2018-06-30T05:58:27.769Z,3465.00
2018-06-30T05:59:28.079Z,3555.00
2018-06-30T06:00:28.189Z,3532.50
2018-06-30T06:03:00.336Z,3577.50
2018-06-30T06:04:00.516Z,3532.50
2018-06-30T06:05:00.713Z,3588.75
2018-06-30T06:06:00.907Z,3706.88
2018-06-30T06:07:01.100Z,3667.50
2018-06-30T06:08:01.303Z,3690.00
2018-06-30T06:09:01.500Z,3684.38
2018-06-30T06:10:01.732Z,3701.25
2018-06-30T06:11:01.900Z,3690.00
2018-06-30T06:12:02.096Z,3645.00
2018-06-30T06:13:02.307Z,3628.13
2018-06-30T06:14:02.505Z,3791.25
2018-06-30T06:15:02.725Z,3639.38
2018-06-30T06:16:02.919Z,3836.25
2018-06-30T06:17:03.142Z,3943.13
2018-06-30T06:18:03.351Z,3886.88
2018-06-30T06:19:03.562Z,3915.00
2018-06-30T06:20:03.787Z,3954.38
2018-06-30T06:21:04.039Z,4061.25
2018-06-30T06:22:04.195Z,4140.00
2018-06-30T06:23:04.416Z,4111.88
2018-06-30T06:24:04.622Z,4151.25
2018-06-30T06:25:04.835Z,4201.88
2018-06-30T06:26:05.051Z,4201.88
2018-06-30T06:27:05.259Z,4190.63
2018-06-30T06:28:05.478Z,4151.25
2018-06-30T06:29:05.681Z,4224.38
2018-06-30T06:30:05.891Z,4117.50
2018-06-30T06:31:06.109Z,4342.50
2018-06-30T06:32:06.332Z,4230.00
2018-06-30T06:33:06.524Z,4320.00
2018-06-30T06:34:06.754Z,4387.50
2018-06-30T06:35:06.941Z,4359.38
2018-06-30T06:36:07.146Z,4443.75
2018-06-30T06:37:07.352Z,4336.88
2018-06-30T06:38:07.574Z,4511.25
2018-06-30T06:39:07.776Z,4567.50
2018-06-30T06:40:07.974Z,1906.88
2018-06-30T06:41:08.177Z,4657.50
2018-06-30T06:42:08.492Z,4725.00
2018-06-30T06:43:08.583Z,4758.75
2018-06-30T06:44:08.801Z,4443.75
2018-06-30T06:45:09.013Z,4730.63
2018-06-30T06:46:09.240Z,4449.38
2018-06-30T06:47:09.440Z,4623.75
2018-06-30T06:48:09.642Z,4050.00
2018-06-30T06:49:09.848Z,4646.25
2018-06-30T06:50:10.044Z,4646.25
2018-06-30T06:51:10.268Z,4623.75
2018-06-30T06:52:10.466Z,4595.63
2018-06-30T06:53:10.680Z,4646.25
2018-06-30T06:54:10.898Z,4691.25
2018-06-30T06:55:11.092Z,4719.38
2018-06-30T06:56:11.284Z,4736.25
2018-06-30T06:57:11.517Z,4758.75
2018-06-30T06:58:11.728Z,4809.38
2018-06-30T06:59:11.920Z,4865.63
2018-06-30T07:00:12.172Z,4843.13
2018-06-30T07:01:12.389Z,4815.00
2018-06-30T07:02:12.612Z,4758.75
2018-06-30T07:03:12.881Z,4843.13
2018-06-30T07:04:12.995Z,4775.63
2018-06-30T07:05:13.179Z,4741.88
2018-06-30T07:06:13.398Z,4696.88
2018-06-30T07:07:13.593Z,4696.88
2018-06-30T07:08:13.823Z,4696.88
2018-06-30T07:09:14.068Z,4708.13
2018-06-30T07:10:14.248Z,4764.38
2018-06-30T07:11:14.449Z,4792.50
2018-06-30T07:12:14.799Z,2908.13
2018-06-30T07:13:15.047Z,4848.75
2018-06-30T07:14:15.090Z,4893.75
2018-06-30T07:16:46.934Z,5023.13
2018-06-30T07:17:47.123Z,2756.25
2018-06-30T07:18:47.324Z,5011.88
2018-06-30T07:19:47.539Z,5034.38
2018-06-30T07:20:47.732Z,5068.13
2018-06-30T07:21:47.948Z,5062.50
2018-06-30T07:22:48.171Z,5079.38
2018-06-30T07:23:48.380Z,5096.25
2018-06-30T07:24:48.574Z,5158.13
2018-06-30T07:25:48.790Z,5163.75
2018-06-30T07:26:49.016Z,5186.25
2018-06-30T07:27:49.215Z,5214.38
2018-06-30T07:28:49.414Z,5220.00
2018-06-30T07:29:49.611Z,5214.38
2018-06-30T07:30:49.805Z,5231.25
2018-06-30T07:31:50.091Z,5214.38
2018-06-30T07:32:50.176Z,5253.75
2018-06-30T07:33:50.444Z,5304.38
2018-06-30T07:34:50.593Z,5321.25
2018-06-30T07:35:50.809Z,5349.38
2018-06-30T07:36:51.045Z,5411.25
2018-06-30T07:37:51.387Z,5450.63
2018-06-30T07:38:51.479Z,5433.75
2018-06-30T07:39:51.674Z,5377.50
2018-06-30T07:40:51.866Z,5310.00
2018-06-30T07:41:52.067Z,4635.00
2018-06-30T07:42:52.267Z,5731.88
2018-06-30T07:43:52.486Z,5523.75
2018-06-30T07:44:52.710Z,5737.50
2018-06-30T07:45:52.924Z,1282.50
2018-06-30T07:46:53.127Z,5636.25
2018-06-30T07:47:53.325Z,5630.63
2018-06-30T07:48:53.526Z,5636.25
2018-06-30T07:49:53.748Z,5776.88
2018-06-30T07:50:53.977Z,1130.63
2018-06-30T07:51:54.195Z,5799.38
2018-06-30T07:54:26.346Z,5664.38
2018-06-30T07:55:26.554Z,5613.75
2018-06-30T07:56:26.803Z,5709.38
2018-06-30T07:57:27.027Z,1231.88
2018-06-30T07:58:27.220Z,5928.75
2018-06-30T07:59:27.436Z,5833.13
2018-06-30T08:00:27.640Z,5793.75
2018-06-30T08:01:27.846Z,5743.13
2018-06-30T08:02:28.043Z,5805.00
2018-06-30T08:03:28.264Z,5833.13
2018-06-30T08:04:28.515Z,5940.00
2018-06-30T08:05:28.724Z,5973.75
2018-06-30T08:06:28.940Z,5911.88
2018-06-30T08:07:29.140Z,5973.75
2018-06-30T08:08:29.572Z,6024.38
2018-06-30T08:09:29.754Z,6114.38
2018-06-30T08:10:29.771Z,6108.75
2018-06-30T08:11:29.969Z,4601.25
2018-06-30T08:12:30.185Z,6013.13
2018-06-30T08:13:30.412Z,6018.75
2018-06-30T08:14:30.605Z,5872.50
2018-06-30T08:15:30.837Z,5900.63
2018-06-30T08:16:31.058Z,5872.50
2018-06-30T08:17:31.282Z,5821.88
2018-06-30T08:18:31.540Z,5945.63
2018-06-30T08:19:31.726Z,5889.38
2018-06-30T08:20:31.936Z,5861.25
2018-06-30T08:21:32.159Z,5951.25
2018-06-30T08:22:32.361Z,4938.75
2018-06-30T08:23:32.579Z,1333.13
2018-06-30T08:24:32.803Z,5574.38
2018-06-30T08:25:32.997Z,5985.00
2018-06-30T08:26:33.219Z,5934.38
2018-06-30T08:27:33.408Z,5923.13
2018-06-30T08:28:33.616Z,5838.75
2018-06-30T08:29:33.871Z,5973.75
2018-06-30T08:30:34.032Z,5934.38
2018-06-30T08:31:34.243Z,5962.50
2018-06-30T08:32:34.469Z,6018.75
2018-06-30T08:33:34.669Z,5990.63
2018-06-30T08:34:34.875Z,6035.63
2018-06-30T08:35:35.095Z,5911.88
2018-06-30T08:36:35.310Z,5878.13
2018-06-30T08:37:35.535Z,5911.88
2018-06-30T08:38:35.724Z,5956.88
2018-06-30T08:39:35.941Z,5940.00
2018-06-30T08:40:36.153Z,5962.50
2018-06-30T08:41:36.368Z,5934.38
2018-06-30T08:42:36.711Z,5906.25
2018-06-30T08:43:36.802Z,5883.75
2018-06-30T08:44:37.037Z,5928.75
2018-06-30T08:45:37.220Z,5855.63
2018-06-30T08:46:37.453Z,5956.88
2018-06-30T08:47:37.670Z,5861.25
2018-06-30T08:48:37.867Z,5866.88
2018-06-30T08:49:38.086Z,5810.63
2018-06-30T08:50:38.291Z,5771.25
2018-06-30T08:51:38.511Z,5844.38
2018-06-30T08:52:38.705Z,5855.63
2018-06-30T08:53:38.913Z,5833.13
2018-06-30T08:54:39.138Z,5805.00
2018-06-30T08:55:39.400Z,5816.25
2018-06-30T08:56:39.539Z,5776.88
2018-06-30T08:57:39.758Z,5726.25
2018-06-30T08:58:39.955Z,5816.25
2018-06-30T08:59:40.165Z,5805.00
2018-06-30T09:00:40.410Z,5726.25
2018-06-30T09:01:40.607Z,5709.38
2018-06-30T09:02:40.816Z,5788.13
2018-06-30T09:03:41.120Z,5776.88
2018-06-30T09:04:41.254Z,5748.75
2018-06-30T09:05:41.477Z,5771.25
2018-06-30T09:06:41.739Z,5793.75
2018-06-30T09:07:41.899Z,5810.63
2018-06-30T09:08:42.101Z,5743.13
2018-06-30T09:09:42.322Z,5720.63
2018-06-30T09:10:42.567Z,5703.75
2018-06-30T09:11:42.755Z,5715.00
2018-06-30T09:12:42.979Z,5630.63
2018-06-30T09:13:43.180Z,5731.88
2018-06-30T09:14:43.372Z,5827.50
2018-06-30T09:15:43.594Z,5805.00
2018-06-30T09:16:43.815Z,5810.63
2018-06-30T09:17:44.033Z,5675.63
2018-06-30T09:18:44.234Z,5664.38
2018-06-30T09:19:44.460Z,5585.63
2018-06-30T09:20:44.779Z,5535.00
2018-06-30T09:21:44.885Z,5461.88
2018-06-30T09:22:45.100Z,5473.13
2018-06-30T09:23:45.295Z,5535.00
2018-06-30T09:24:45.491Z,5591.25
2018-06-30T09:25:45.693Z,5546.25
2018-06-30T09:26:45.888Z,5461.88
2018-06-30T09:27:46.097Z,5456.25
2018-06-30T09:28:46.319Z,5456.25
2018-06-30T09:29:46.556Z,5506.88
2018-06-30T09:30:46.746Z,5501.25
2018-06-30T09:31:46.963Z,5445.00
2018-06-30T09:32:47.174Z,5400.00
2018-06-30T09:33:47.391Z,5383.13
2018-06-30T09:34:47.599Z,5388.75
2018-06-30T09:35:47.797Z,5416.88
2018-06-30T09:36:48.008Z,5394.38
2018-06-30T09:37:48.301Z,5332.50
2018-06-30T09:38:48.454Z,5321.25
2018-06-30T09:39:48.661Z,5349.38
2018-06-30T09:40:48.894Z,5349.38
2018-06-30T09:41:49.082Z,5355.00
2018-06-30T09:42:49.303Z,5343.75
2018-06-30T09:43:49.535Z,5355.00
2018-06-30T09:46:21.820Z,5310.00
2018-06-30T09:47:22.002Z,5265.00
2018-06-30T09:48:22.205Z,5242.50
2018-06-30T09:49:22.418Z,5281.88
2018-06-30T09:50:22.639Z,5298.75
2018-06-30T09:51:22.843Z,5281.88
2018-06-30T09:52:23.047Z,5225.63
2018-06-30T09:53:23.270Z,5180.63
2018-06-30T09:54:23.483Z,5163.75
2018-06-30T09:55:23.682Z,5146.88
2018-06-30T09:56:23.876Z,5130.00
2018-06-30T09:57:24.072Z,5118.75
2018-06-30T09:58:24.272Z,5096.25
2018-06-30T09:59:24.501Z,5073.75
2018-06-30T10:00:24.778Z,5062.50
2018-06-30T10:01:24.923Z,5079.38
2018-06-30T10:02:25.136Z,5085.00
2018-06-30T10:03:25.363Z,5073.75
2018-06-30T10:04:25.572Z,5051.25
2018-06-30T10:05:25.767Z,5062.50
2018-06-30T10:06:25.999Z,5051.25
2018-06-30T10:07:26.194Z,5056.88
2018-06-30T10:08:26.402Z,5028.75
2018-06-30T10:09:26.601Z,5028.75
2018-06-30T10:10:26.803Z,5017.50
2018-06-30T10:11:26.995Z,4978.13
2018-06-30T10:12:27.218Z,4961.25
2018-06-30T10:13:27.443Z,4950.00
2018-06-30T10:14:27.676Z,4927.50
2018-06-30T10:15:27.870Z,4905.00
2018-06-30T10:16:28.086Z,4899.38
2018-06-30T10:17:28.360Z,4882.50
2018-06-30T10:18:28.514Z,4848.75
2018-06-30T10:19:28.791Z,4860.00
2018-06-30T10:20:28.933Z,4815.00
2018-06-30T10:21:29.144Z,4798.13
2018-06-30T10:22:29.362Z,4736.25
2018-06-30T10:23:29.574Z,4162.50
2018-06-30T10:24:29.777Z,2919.38
2018-06-30T10:25:29.981Z,1636.88
2018-06-30T10:26:30.191Z,973.13
2018-06-30T10:27:30.413Z,956.25
2018-06-30T10:28:30.613Z,939.38
2018-06-30T10:29:30.824Z,933.75
2018-06-30T10:30:31.016Z,928.13
2018-06-30T10:31:31.232Z,922.50
2018-06-30T10:32:31.443Z,916.88
2018-06-30T10:33:31.645Z,911.25
2018-06-30T10:34:31.865Z,911.25
2018-06-30T10:35:32.068Z,911.25
2018-06-30T10:36:32.279Z,911.25
2018-06-30T10:37:32.572Z,905.63
2018-06-30T10:38:32.686Z,900.00
2018-06-30T10:39:32.875Z,900.00
2018-06-30T10:40:33.073Z,894.38
2018-06-30T10:41:33.275Z,894.38
2018-06-30T10:44:05.179Z,877.50
2018-06-30T10:45:05.353Z,871.88
2018-06-30T10:46:05.567Z,866.25
2018-06-30T10:47:05.755Z,860.63
2018-06-30T10:48:05.956Z,855.00
2018-06-30T10:49:06.154Z,849.38
2018-06-30T10:50:06.361Z,843.75
2018-06-30T10:51:06.609Z,838.13
2018-06-30T10:52:06.800Z,832.50
2018-06-30T10:53:07.006Z,826.88
2018-06-30T10:54:07.222Z,821.25
2018-06-30T10:55:07.432Z,810.00
2018-06-30T10:56:07.626Z,804.38
2018-06-30T10:58:39.773Z,781.88
2018-06-30T10:59:39.963Z,770.63
2018-06-30T11:00:40.152Z,765.00
2018-06-30T11:01:40.348Z,759.38
2018-06-30T11:02:40.554Z,753.75
2018-06-30T11:03:40.750Z,748.13
2018-06-30T11:04:40.947Z,742.50
2018-06-30T11:05:41.165Z,731.25
2018-06-30T11:06:41.384Z,725.63
2018-06-30T11:07:41.594Z,725.63
2018-06-30T11:08:41.805Z,720.00
2018-06-30T11:09:41.996Z,714.38
2018-06-30T11:10:42.213Z,714.38
2018-06-30T11:11:42.441Z,708.75
2018-06-30T11:12:42.783Z,703.13
2018-06-30T11:13:42.822Z,703.13
2018-06-30T11:14:43.036Z,703.13
2018-06-30T11:15:43.247Z,697.50
2018-06-30T11:16:43.473Z,697.50
2018-06-30T11:17:43.674Z,691.88
2018-06-30T11:18:43.885Z,691.88
2018-06-30T11:19:44.112Z,691.88
2018-06-30T11:20:44.337Z,686.25
2018-06-30T11:23:16.453Z,680.63
2018-06-30T11:24:16.636Z,680.63
2018-06-30T11:25:16.838Z,686.25
2018-06-30T11:26:17.037Z,675.00
2018-06-30T11:27:17.245Z,675.00
2018-06-30T11:28:17.443Z,669.38
2018-06-30T11:29:17.643Z,669.38
2018-06-30T11:30:17.851Z,669.38
2018-06-30T11:31:18.050Z,663.75
2018-06-30T11:32:18.241Z,663.75
2018-06-30T11:33:18.555Z,663.75
2018-06-30T11:34:18.622Z,663.75
2018-06-30T11:35:18.824Z,663.75
2018-06-30T11:36:19.026Z,658.13
2018-06-30T11:37:19.216Z,658.13
2018-06-30T11:38:19.424Z,658.13
2018-06-30T11:40:51.515Z,658.13
2018-06-30T11:41:51.433Z,652.50
2018-06-30T11:42:51.652Z,652.50
2018-06-30T11:43:51.842Z,652.50
2018-06-30T11:44:52.049Z,652.50
2018-06-30T11:45:52.253Z,652.50
2018-06-30T11:46:52.474Z,646.88
2018-06-30T11:47:52.665Z,652.50
2018-06-30T11:48:52.934Z,652.50
2018-06-30T11:49:53.018Z,646.88
2018-06-30T11:50:53.220Z,646.88
2018-06-30T11:51:53.420Z,646.88
2018-06-30T11:52:53.636Z,646.88
2018-06-30T11:53:53.849Z,641.25
2018-06-30T11:54:54.051Z,641.25
2018-06-30T11:55:54.255Z,646.88
2018-06-30T11:56:54.478Z,641.25
2018-06-30T11:57:54.683Z,641.25
2018-06-30T11:58:54.894Z,641.25
2018-06-30T11:59:55.098Z,641.25
2018-06-30T12:00:55.297Z,635.63
2018-06-30T12:01:55.511Z,635.63
2018-06-30T12:02:55.724Z,635.63
2018-06-30T12:03:55.954Z,635.63
2018-06-30T12:04:56.159Z,635.63
2018-06-30T12:05:56.364Z,630.00
2018-06-30T12:08:28.552Z,630.00
2018-06-30T12:09:28.745Z,630.00
2018-06-30T12:10:28.968Z,630.00
2018-06-30T12:11:29.178Z,630.00
2018-06-30T12:12:29.375Z,630.00
2018-06-30T12:15:01.510Z,630.00
2018-06-30T12:16:01.693Z,630.00
2018-06-30T12:17:01.886Z,630.00
2018-06-30T12:18:02.107Z,624.38
2018-06-30T12:19:02.305Z,624.38
2018-06-30T12:20:02.607Z,630.00
2018-06-30T12:21:02.669Z,624.38
2018-06-30T12:22:02.868Z,618.75
2018-06-30T12:23:03.073Z,618.75
2018-06-30T12:24:03.272Z,618.75
2018-06-30T12:25:03.473Z,618.75
2018-06-30T12:26:03.656Z,618.75
2018-06-30T12:27:03.879Z,624.38
2018-06-30T12:28:04.103Z,613.13
2018-06-30T12:29:04.308Z,624.38
2018-06-30T12:30:04.525Z,613.13
2018-06-30T12:31:04.789Z,613.13
2018-06-30T12:32:04.913Z,613.13
2018-06-30T12:33:05.082Z,613.13
2018-06-30T12:34:05.286Z,613.13
2018-06-30T12:35:05.487Z,607.50
2018-06-30T12:36:05.698Z,607.50
2018-06-30T12:37:05.896Z,607.50
2018-06-30T12:38:06.113Z,607.50
2018-06-30T12:39:06.348Z,607.50
2018-06-30T12:40:06.489Z,607.50
2018-06-30T12:41:06.687Z,601.88
2018-06-30T12:43:38.840Z,601.88
2018-06-30T12:44:39.035Z,601.88
2018-06-30T12:45:39.241Z,601.88
2018-06-30T12:46:39.447Z,601.88
2018-06-30T12:47:39.645Z,596.25
2018-06-30T12:48:39.859Z,596.25
2018-06-30T12:49:40.077Z,596.25
2018-06-30T12:50:40.265Z,596.25
2018-06-30T12:53:12.400Z,596.25
2018-06-30T12:54:12.767Z,590.63
2018-06-30T12:55:12.767Z,590.63
2018-06-30T12:56:12.995Z,590.63
2018-06-30T12:57:13.180Z,590.63
2018-06-30T12:59:46.081Z,590.63
2018-06-30T13:00:45.641Z,590.63
2018-06-30T13:01:45.833Z,596.25
2018-06-30T13:02:46.046Z,596.25
2018-06-30T13:03:46.245Z,601.88
2018-06-30T13:04:46.448Z,596.25
2018-06-30T13:05:46.650Z,596.25
2018-06-30T13:06:46.861Z,596.25